Time;durP1;ratioP1;P1;durP2;ratioP2;P2;SDS_P1;SDS_P2;PMS_P1;PMS_P2;Temp;Humidity;BMP_temperature;BMP_pressure;BME280_temperature;BME280_humidity;BME280_pressure;Samples;Min_cycle;Max_cycle;Signal;HPM_P1;HPM_P2
2023/02/12 00:01:36;;;;;;;19.40;14.20;;;;;;;1.77;86.28;99373.45;107339;1257;72956;-41
2023/02/12 00:04:04;;;;;;;17.70;13.20;;;;;;;1.79;86.14;99375.11;107383;1257;69834;-41
2023/02/12 00:06:33;;;;;;;17.60;12.10;;;;;;;1.86;86.05;99379.67;107324;1260;73897;-41
2023/02/12 00:09:01;;;;;;;18.00;13.30;;;;;;;1.89;86.00;99385.58;107331;1256;60434;-41
2023/02/12 00:11:30;;;;;;;12.70;9.30;;;;;;;1.89;85.97;99384.41;107318;1257;61618;-41
2023/02/12 00:14:00;;;;;;;15.80;12.00;;;;;;;1.86;85.96;99391.64;107276;1257;74856;-41
2023/02/12 00:16:31;;;;;;;14.60;10.90;;;;;;;1.89;85.95;99388.41;107224;1258;69070;-41
2023/02/12 00:18:59;;;;;;;14.50;10.20;;;;;;;1.97;85.84;99390.86;107267;1257;73567;-41
2023/02/12 00:21:28;;;;;;;16.80;10.80;;;;;;;1.97;85.79;99397.98;107299;1257;60596;-41
2023/02/12 00:23:57;;;;;;;14.90;11.30;;;;;;;1.91;85.59;99405.54;107337;1257;61438;-41
2023/02/12 00:26:26;;;;;;;13.80;10.40;;;;;;;1.87;85.91;99407.48;107293;1256;75384;-41
2023/02/12 00:28:54;;;;;;;12.00;8.90;;;;;;;1.94;85.77;99417.66;107270;1260;69921;-41
2023/02/12 00:31:25;;;;;;;11.80;9.50;;;;;;;2.01;85.61;99419.10;107251;1257;73652;-41
2023/02/12 00:33:58;;;;;;;12.60;8.90;;;;;;;2.04;85.47;99421.50;107314;1257;60914;-41
2023/02/12 00:36:27;;;;;;;13.80;10.00;;;;;;;2.04;85.61;99423.03;107390;1256;61785;-41
2023/02/12 00:38:56;;;;;;;10.80;8.00;;;;;;;2.01;85.87;99426.70;107261;1257;75044;-41
2023/02/12 00:41:25;;;;;;;11.10;7.40;;;;;;;2.03;85.66;99430.61;107319;1257;69810;-41
2023/02/12 00:43:55;;;;;;;9.80;7.90;;;;;;;2.09;85.45;99435.93;107344;1257;73505;-41
2023/02/12 00:46:24;;;;;;;9.30;7.00;;;;;;;2.14;85.54;99440.75;107341;1256;61594;-41
2023/02/12 00:48:55;;;;;;;9.20;7.10;;;;;;;2.16;85.58;99443.03;107280;1256;60358;-41
2023/02/12 00:51:24;;;;;;;8.90;6.80;;;;;;;2.17;85.37;99445.11;107244;1261;74315;-41
2023/02/12 00:53:52;;;;;;;8.70;6.60;;;;;;;2.21;85.17;99450.00;107368;1257;69870;-41
2023/02/12 00:56:21;;;;;;;8.50;6.50;;;;;;;2.31;85.02;99453.25;107284;1261;73867;-41
2023/02/12 00:58:49;;;;;;;7.80;5.70;;;;;;;2.34;84.79;99455.39;107279;1257;61568;-41
2023/02/12 01:01:18;;;;;;;6.90;5.70;;;;;;;2.34;84.71;99457.68;107312;1256;61572;-41
2023/02/12 01:03:47;;;;;;;7.70;5.90;;;;;;;2.32;84.45;99460.79;107201;1257;75116;-41
2023/02/12 01:06:16;;;;;;;7.00;5.10;;;;;;;2.32;84.35;99469.98;107244;1257;69928;-41
2023/02/12 01:08:50;;;;;;;7.30;5.10;;;;;;;2.38;84.04;99471.29;107221;1257;73513;-41
2023/02/12 01:11:18;;;;;;;5.90;4.80;;;;;;;2.39;84.08;99476.87;107247;1257;61557;-41
2023/02/12 01:13:48;;;;;;;;;;;;;;;2.37;83.85;99482.85;107278;1257;62527;-42
2023/02/12 01:16:18;;;;;;;5.20;4.10;;;;;;;2.28;84.26;99486.21;107306;1256;74270;-41
2023/02/12 01:18:46;;;;;;;4.40;3.60;;;;;;;2.23;83.97;99492.55;107281;1257;71598;-41
2023/02/12 01:21:24;;;;;;;5.80;3.90;;;;;;;2.29;83.68;99493.43;107341;1257;72392;-41
2023/02/12 01:23:52;;;;;;;6.40;3.80;;;;;;;2.32;83.67;99490.78;107263;1257;60559;-41
2023/02/12 01:26:20;;;;;;;5.00;3.60;;;;;;;2.32;83.67;99499.93;107310;1257;61534;-41
2023/02/12 01:28:56;;;;;;;5.70;3.90;;;;;;;2.30;83.56;99499.23;107231;1258;75060;-41
2023/02/12 01:31:26;;;;;;;5.50;3.90;;;;;;;2.31;83.27;99511.20;107224;1262;70012;-41
2023/02/12 01:33:55;;;;;;;4.20;3.40;;;;;;;2.34;82.86;99512.73;107256;1257;73558;-41
2023/02/12 01:36:24;;;;;;;4.50;3.60;;;;;;;2.34;82.95;99516.95;107264;1257;61578;-41
2023/02/12 01:38:55;;;;;;;5.50;4.20;;;;;;;2.33;82.87;99519.45;107334;1257;60096;-41
2023/02/12 01:41:26;;;;;;;3.50;2.80;;;;;;;2.31;83.01;99526.93;107324;1257;74650;-41
2023/02/12 01:44:36;;;;;;;5.30;3.90;;;;;;;2.29;82.68;99533.17;107224;1257;68261;-41
2023/02/12 01:47:05;;;;;;;4.80;3.50;;;;;;;2.32;82.44;99537.01;106165;1263;1002856;-41
2023/02/12 01:49:40;;;;;;;4.60;3.60;;;;;;;2.30;82.23;99539.73;107138;1257;61608;-41
2023/02/12 01:52:14;;;;;;;4.10;3.50;;;;;;;2.27;82.35;99545.96;107262;1257;61585;-41
2023/02/12 01:54:43;;;;;;;4.10;3.30;;;;;;;2.22;82.37;99556.19;107266;1257;74888;-41
2023/02/12 01:57:12;;;;;;;4.40;3.40;;;;;;;2.23;82.25;99569.90;107197;1257;68957;-41
2023/02/12 01:59:41;;;;;;;4.00;2.90;;;;;;;2.28;81.89;99573.59;107109;1257;74148;-41
2023/02/12 02:02:10;;;;;;;3.90;3.10;;;;;;;2.24;81.59;99578.38;107172;1257;61398;-41
2023/02/12 02:04:44;;;;;;;3.80;3.20;;;;;;;2.06;80.86;99576.11;107212;1256;61501;-41
2023/02/12 02:07:17;;;;;;;2.70;2.30;;;;;;;2.02;80.06;99588.08;107173;1257;74049;-41
2023/02/12 02:09:45;;;;;;;2.80;2.00;;;;;;;1.93;79.05;99588.55;107150;1257;68468;-41
2023/02/12 02:15:04;;;;;;;2.80;1.90;;;;;;;1.75;76.72;99596.59;107221;1257;60553;-41
2023/02/12 02:17:41;;;;;;;3.00;2.00;;;;;;;1.67;76.78;99606.19;107279;1257;60328;-41
2023/02/12 02:20:23;;;;;;;2.00;1.60;;;;;;;1.62;75.45;99611.10;107265;1257;74927;-41
2023/02/12 02:23:31;;;;;;;3.80;1.40;;;;;;;1.60;75.35;99616.95;107260;1257;69781;-41
2023/02/12 02:26:18;;;;;;;2.70;1.80;;;;;;;1.53;75.18;99628.67;107219;1257;73914;-41
2023/02/12 02:28:47;;;;;;;2.00;1.50;;;;;;;1.44;75.17;99635.58;107169;1257;62327;-41
2023/02/12 02:31:19;;;;;;;2.10;1.50;;;;;;;1.44;75.45;99644.70;107187;1257;61571;-41
2023/02/12 02:33:58;;;;;;;2.30;1.50;;;;;;;1.43;75.38;99652.63;107167;1257;74636;-41
2023/02/12 02:36:38;;;;;;;2.30;1.70;;;;;;;1.40;75.68;99661.17;105714;1260;1003446;-41
2023/02/12 02:39:40;;;;;;;2.40;1.80;;;;;;;1.32;75.43;99668.77;107169;1257;73872;-41
2023/02/12 02:42:18;;;;;;;2.10;1.50;;;;;;;1.26;75.27;99671.46;107259;1257;62103;-41
2023/02/12 02:44:56;;;;;;;3.80;1.50;;;;;;;1.27;74.89;99679.11;107240;1258;60483;-41
2023/02/12 02:47:41;;;;;;;1.90;1.60;;;;;;;1.25;74.96;99691.89;107259;1261;75018;-41
2023/02/12 02:50:13;;;;;;;2.80;1.60;;;;;;;1.18;74.56;99701.98;107259;1257;69783;-41
2023/02/12 02:52:48;;;;;;;1.90;1.10;;;;;;;1.07;72.79;99705.55;107281;1257;71552;-41
2023/02/12 02:55:17;;;;;;;1.20;1.00;;;;;;;1.04;72.35;99711.95;107295;1257;60753;-41
2023/02/12 02:58:01;;;;;;;1.80;1.00;;;;;;;1.01;71.76;99716.05;106574;1262;1003767;-41
2023/02/12 03:00:42;;;;;;;2.50;1.00;;;;;;;0.97;71.37;99723.99;107344;1260;72895;-41
2023/02/12 03:03:19;;;;;;;2.60;1.10;;;;;;;0.89;71.47;99736.17;107255;1257;68640;-41
2023/02/12 03:05:49;;;;;;;1.60;1.20;;;;;;;0.83;71.54;99738.01;107158;1257;74210;-41
2023/02/12 03:08:27;;;;;;;1.00;0.80;;;;;;;0.79;70.69;99746.87;107214;1257;60748;-41
2023/02/12 03:11:02;;;;;;;3.30;1.10;;;;;;;0.72;70.23;99758.31;107263;1260;60466;-41
2023/02/12 03:13:47;;;;;;;1.30;0.90;;;;;;;0.61;69.78;99766.33;107292;1257;75000;-41
2023/02/12 03:16:21;;;;;;;1.80;0.80;;;;;;;0.46;69.74;99762.23;107259;1257;69939;-41
2023/02/12 03:19:15;;;;;;;1.20;0.90;;;;;;;0.40;70.11;99781.39;107190;1257;73621;-41
2023/02/12 03:22:08;;;;;;;1.80;0.80;;;;;;;0.41;70.43;99793.39;107305;1257;60741;-41
2023/02/12 03:24:50;;;;;;;1.80;0.90;;;;;;;0.28;70.55;99808.61;107294;1256;60491;-41
2023/02/12 03:27:31;;;;;;;2.30;1.10;;;;;;;0.19;69.91;99815.34;107305;1257;75181;-41
2023/02/12 03:30:00;;;;;;;1.20;1.00;;;;;;;0.12;69.92;99828.36;107310;1260;69715;-41
2023/02/12 03:32:34;;;;;;;2.20;1.00;;;;;;;0.12;69.93;99831.72;107311;1257;73684;-41
2023/02/12 03:35:53;;;;;;;4.00;1.00;;;;;;;0.09;69.83;99839.90;107245;1257;60482;-40
2023/02/12 03:38:26;;;;;;;2.90;1.20;;;;;;;0.04;70.06;99853.48;107089;1262;60511;-40
2023/02/12 03:41:06;;;;;;;3.30;1.00;;;;;;;-0.10;70.19;99857.05;106465;1256;1003406;-40
2023/02/12 03:43:49;;;;;;;3.20;1.40;;;;;;;-0.12;69.60;99866.44;107256;1257;68920;-40
2023/02/12 03:46:42;;;;;;;2.30;1.00;;;;;;;-0.16;69.27;99879.84;106458;1257;1002915;-40
2023/02/12 03:49:19;;;;;;;1.20;1.00;;;;;;;-0.22;67.90;99886.06;107140;1257;60803;-40
2023/02/12 03:51:48;;;;;;;2.30;0.90;;;;;;;-0.36;67.41;99873.30;107309;1258;60294;-40
2023/02/12 03:54:18;;;;;;;2.50;1.00;;;;;;;-0.35;67.13;99889.00;107278;1257;74394;-40
2023/02/12 03:57:07;;;;;;;3.40;0.90;;;;;;;-0.43;66.96;99894.30;107378;1260;68436;-40
2023/02/12 03:59:35;;;;;;;2.60;0.90;;;;;;;-0.41;66.93;99901.08;107279;1257;73547;-40
2023/02/12 04:02:04;;;;;;;4.20;0.90;;;;;;;-0.45;66.70;99905.89;106590;1257;1003226;-40
2023/02/12 04:04:38;;;;;;;2.30;0.90;;;;;;;-0.49;66.99;99916.23;107329;1260;61535;-40
2023/02/12 04:07:08;;;;;;;1.60;0.70;;;;;;;-0.51;67.39;99923.97;107260;1256;74931;-40
2023/02/12 04:09:36;;;;;;;1.70;0.80;;;;;;;-0.52;67.71;99930.95;107301;1257;69932;-40
2023/02/12 04:12:18;;;;;;;1.70;0.90;;;;;;;-0.48;67.97;99935.03;107170;1257;73903;-40
2023/02/12 04:14:46;;;;;;;2.60;0.90;;;;;;;-0.47;68.52;99939.02;107300;1256;60562;-40
2023/02/12 04:17:25;;;;;;;3.50;1.20;;;;;;;-0.48;68.53;99943.28;106540;1258;1002974;-41
2023/02/12 04:20:25;;;;;;;2.10;0.90;;;;;;;-0.52;68.71;99949.54;107290;1258;75296;-40
2023/02/12 04:23:21;;;;;;;2.20;0.90;;;;;;;-0.58;68.28;99957.96;107320;1257;70012;-40
2023/02/12 04:26:15;;;;;;;2.30;0.80;;;;;;;-0.56;67.02;99965.79;107334;1260;73765;-40
2023/02/12 04:28:49;;;;;;;1.60;0.70;;;;;;;-0.60;66.82;99975.82;107312;1260;60603;-40
2023/02/12 04:31:49;;;;;;;3.40;1.30;;;;;;;-0.66;66.56;99980.31;107281;1260;60637;-40
2023/02/12 04:34:27;;;;;;;1.80;0.90;;;;;;;-0.70;66.84;99983.67;107259;1257;74750;-40
2023/02/12 04:37:17;;;;;;;3.90;1.00;;;;;;;-0.80;66.41;99988.33;107260;1260;70166;-40
2023/02/12 04:39:45;;;;;;;2.40;1.10;;;;;;;-0.85;66.05;99986.64;107260;1260;72850;-41
2023/02/12 04:42:14;;;;;;;3.10;1.20;;;;;;;-0.84;65.71;99993.45;107328;1260;60740;-40
2023/02/12 04:44:42;;;;;;;2.80;1.40;;;;;;;-0.88;65.32;99998.77;107339;1257;61510;-40
2023/02/12 04:47:12;;;;;;;3.20;1.30;;;;;;;-0.94;65.06;100001.92;107311;1257;74960;-40
2023/02/12 04:49:40;;;;;;;3.20;1.70;;;;;;;-0.98;64.97;100002.39;107364;1258;70047;-40
2023/02/12 04:52:09;;;;;;;4.30;1.70;;;;;;;-1.04;65.11;100009.70;106581;1258;1003099;-40
2023/02/12 04:54:38;;;;;;;2.60;1.30;;;;;;;-1.08;65.23;100017.52;107340;1260;62223;-40
2023/02/12 04:57:08;;;;;;;4.30;1.30;;;;;;;-1.03;65.18;100022.54;107311;1255;61408;-40
2023/02/12 04:59:36;;;;;;;3.50;1.30;;;;;;;-1.03;65.25;100028.42;107343;1260;72649;-40
2023/02/12 05:02:04;;;;;;;3.30;1.50;;;;;;;-1.07;64.94;100027.59;107312;1257;69728;-40
2023/02/12 05:04:34;;;;;;;3.40;1.70;;;;;;;-1.09;65.29;100028.59;107335;1257;73972;-40
2023/02/12 05:07:03;;;;;;;2.30;1.30;;;;;;;-1.13;65.23;100032.64;107296;1260;60584;-40
2023/02/12 05:09:32;;;;;;;1.60;1.10;;;;;;;-1.20;65.37;100041.25;107323;1260;62082;-40
2023/02/12 05:12:08;;;;;;;3.70;1.30;;;;;;;-1.23;65.50;100045.40;107281;1257;75010;-40
2023/02/12 05:14:37;;;;;;;2.50;1.10;;;;;;;-1.24;65.64;100047.59;106559;1258;1003687;-40
2023/02/12 05:17:06;;;;;;;3.70;1.40;;;;;;;-1.20;65.70;100057.42;107296;1258;72957;-40
2023/02/12 05:19:35;;;;;;;3.60;1.10;;;;;;;-1.20;65.78;100063.02;107263;1260;60776;-40
2023/02/12 05:22:03;;;;;;;2.50;1.30;;;;;;;-1.22;65.70;100069.55;107314;1257;61390;-40
2023/02/12 05:24:32;;;;;;;2.00;1.10;;;;;;;-1.24;65.93;100078.38;107333;1257;75077;-40
2023/02/12 05:27:00;;;;;;;2.90;1.20;;;;;;;-1.27;66.13;100083.70;107321;1257;69743;-40
2023/02/12 05:29:29;;;;;;;4.30;1.10;;;;;;;-1.28;66.17;100088.96;107270;1257;73210;-40
2023/02/12 05:31:58;;;;;;;2.30;1.20;;;;;;;-1.25;66.43;100104.51;107182;1256;61204;-40
2023/02/12 05:34:28;;;;;;;4.10;1.20;;;;;;;-1.13;66.34;100111.44;107215;1258;60325;-40
2023/02/12 05:36:56;;;;;;;2.40;1.20;;;;;;;-1.05;66.45;100118.00;107230;1257;74942;-40
2023/02/12 05:39:25;;;;;;;2.20;1.20;;;;;;;-1.02;66.59;100123.80;106477;1257;1003284;-40
2023/02/12 05:41:53;;;;;;;3.00;1.20;;;;;;;-0.98;66.50;100126.48;106532;1260;1003390;-40
2023/02/12 05:44:22;;;;;;;3.20;1.40;;;;;;;-0.94;66.46;100125.73;107316;1258;60552;-40
2023/02/12 05:46:50;;;;;;;3.30;1.40;;;;;;;-0.92;66.46;100136.38;107274;1256;61516;-40
2023/02/12 05:49:19;;;;;;;3.70;1.30;;;;;;;-0.92;66.48;100139.30;107365;1260;74993;-40
2023/02/12 05:51:48;;;;;;;3.00;1.50;;;;;;;-0.91;66.69;100142.29;107304;1260;69926;-40
2023/02/12 05:54:16;;;;;;;2.00;0.80;;;;;;;-0.81;66.65;100142.02;107345;1257;72584;-40
2023/02/12 05:56:46;;;;;;;3.40;1.30;;;;;;;-0.72;66.71;100157.15;107346;1258;60738;-40
2023/02/12 05:59:17;;;;;;;1.40;1.00;;;;;;;-0.67;66.75;100165.10;107396;1257;61497;-40
2023/02/12 06:01:46;;;;;;;4.70;1.50;;;;;;;-0.61;66.82;100161.00;107322;1257;75061;-40
2023/02/12 06:04:23;;;;;;;2.70;1.00;;;;;;;-0.63;66.40;100161.11;107249;1257;69838;-40
2023/02/12 06:06:51;;;;;;;3.40;1.30;;;;;;;-0.58;66.40;100175.48;107320;1259;73148;-40
2023/02/12 06:09:20;;;;;;;3.10;1.00;;;;;;;-0.58;66.41;100185.66;107306;1257;60438;-40
2023/02/12 06:11:49;;;;;;;2.00;1.20;;;;;;;-0.66;66.53;100174.26;107306;1260;61466;-40
2023/02/12 06:14:19;;;;;;;1.60;1.10;;;;;;;-0.52;66.45;100183.00;107397;1258;73898;-40
2023/02/12 06:16:52;;;;;;;4.50;1.50;;;;;;;-0.48;65.00;100192.48;107317;1257;69743;-40
2023/02/12 06:19:20;;;;;;;2.40;1.20;;;;;;;-0.53;64.08;100195.77;107338;1260;72708;-40
2023/02/12 06:21:49;;;;;;;2.30;1.10;;;;;;;-0.52;64.17;100194.08;107299;1257;61017;-40
2023/02/12 06:24:18;;;;;;;2.30;1.20;;;;;;;-0.53;64.05;100196.05;107307;1260;61311;-40
2023/02/12 06:26:48;;;;;;;2.10;1.60;;;;;;;-0.54;64.09;100202.06;107215;1257;74855;-40
2023/02/12 06:29:18;;;;;;;4.40;2.10;;;;;;;-0.53;64.72;100210.11;107209;1260;69686;-40
2023/02/12 06:31:46;;;;;;;3.00;1.20;;;;;;;-0.53;64.83;100207.06;106490;1257;1002888;-40
2023/02/12 06:34:16;;;;;;;4.50;1.50;;;;;;;-0.53;64.67;100213.84;107230;1258;61400;-40
2023/02/12 06:36:45;;;;;;;5.30;3.10;;;;;;;-0.50;64.24;100211.02;107245;1257;61507;-40
2023/02/12 06:39:14;;;;;;;5.50;2.50;;;;;;;-0.50;64.05;100215.49;107234;1260;74019;-40
2023/02/12 06:41:43;;;;;;;3.30;1.30;;;;;;;-0.49;63.89;100217.37;107237;1258;69917;-40
2023/02/12 06:44:11;;;;;;;4.10;1.80;;;;;;;-0.50;62.91;100216.35;107233;1257;74007;-40
2023/02/12 06:46:40;;;;;;;4.60;1.40;;;;;;;-0.51;62.44;100221.40;107267;1256;60539;-40
2023/02/12 06:49:10;;;;;;;3.00;1.10;;;;;;;-0.57;61.97;100229.11;107284;1260;60411;-40
2023/02/12 06:51:40;;;;;;;4.20;1.60;;;;;;;-0.58;62.02;100235.34;107317;1257;72837;-40
2023/02/12 06:54:12;;;;;;;3.30;1.30;;;;;;;-0.59;62.13;100237.22;107287;1260;69055;-40
2023/02/12 06:56:41;;;;;;;1.70;1.10;;;;;;;-0.63;61.59;100244.61;107344;1258;73164;-40
2023/02/12 06:59:14;;;;;;;;;;;;;;;-0.66;61.49;100254.20;107271;1258;60563;-40
2023/02/12 07:01:45;;;;;;;4.50;1.60;;;;;;;-0.71;62.19;100260.09;107335;1256;60510;-40
2023/02/12 07:04:14;;;;;;;3.60;1.50;;;;;;;-0.69;62.65;100265.74;107270;1260;74734;-40
2023/02/12 07:06:43;;;;;;;2.80;1.40;;;;;;;-0.51;62.32;100271.42;107334;1260;68494;-40
2023/02/12 07:09:11;;;;;;;3.50;1.70;;;;;;;-0.38;61.98;100272.29;107294;1257;73417;-40
2023/02/12 07:11:40;;;;;;;3.10;1.60;;;;;;;-0.32;61.81;100278.59;105808;1260;1003746;-40
2023/02/12 07:14:15;;;;;;;2.00;1.10;;;;;;;-0.29;61.30;100282.74;107303;1256;60520;-40
2023/02/12 07:16:43;;;;;;;4.30;1.30;;;;;;;-0.28;61.25;100288.34;107303;1260;74857;-40
2023/02/12 07:19:13;;;;;;;2.60;1.20;;;;;;;-0.29;61.74;100295.05;107279;1257;70046;-40
2023/02/12 07:21:41;;;;;;;3.00;1.20;;;;;;;-0.31;61.12;100298.25;107226;1258;73730;-40
2023/02/12 07:24:18;;;;;;;2.60;1.30;;;;;;;-0.36;60.35;100299.95;106465;1257;1003284;-40
2023/02/12 07:26:47;;;;;;;5.10;1.60;;;;;;;-0.44;60.34;100301.54;107227;1258;61275;-40
2023/02/12 07:29:16;;;;;;;3.10;1.80;;;;;;;-0.53;60.52;100301.58;107261;1260;74926;-40
2023/02/12 07:31:45;;;;;;;3.20;1.50;;;;;;;-0.60;60.71;100307.27;106303;1258;1005915;-40
2023/02/12 07:36:38;;;;;;;5.60;1.50;;;;;;;-0.62;60.66;100309.00;104092;1292;600357;-39
2023/02/12 07:39:09;;;;;;;2.70;1.70;;;;;;;-0.59;61.15;100310.02;106619;1267;60831;-39
2023/02/12 07:41:37;;;;;;;4.30;1.50;;;;;;;-0.51;61.10;100297.20;106533;1266;59244;-39
2023/02/12 07:44:09;;;;;;;2.40;1.60;;;;;;;-0.37;61.18;100300.64;106585;1270;73527;-39
2023/02/12 07:46:39;;;;;;;5.50;2.60;;;;;;;-0.16;61.08;100299.02;106641;1266;68772;-39
2023/02/12 07:49:11;;;;;;;3.20;1.90;;;;;;;0.03;60.77;100301.15;106523;1264;218329;-40
2023/02/12 07:51:40;;;;;;;3.90;1.70;;;;;;;0.23;60.44;100298.80;106838;1264;60720;-39
2023/02/12 07:54:10;;;;;;;4.20;1.60;;;;;;;0.39;59.34;100307.26;106887;1264;61245;-39
2023/02/12 07:56:41;;;;;;;3.60;1.50;;;;;;;0.49;58.36;100310.39;106831;1264;73659;-39
2023/02/12 07:59:11;;;;;;;2.70;1.90;;;;;;;0.58;58.47;100309.99;106873;1264;69884;-39
2023/02/12 08:01:50;;;;;;;2.80;1.70;;;;;;;0.67;58.22;100316.65;106793;1267;72584;-39
2023/02/12 08:04:23;;;;;;;2.80;1.60;;;;;;;0.77;57.63;100321.11;106816;1267;60415;-40
2023/02/12 08:06:53;;;;;;;3.20;1.20;;;;;;;0.84;56.99;100324.02;106860;1264;61473;-40
2023/02/12 08:09:25;;;;;;;3.60;1.60;;;;;;;0.91;57.03;100321.11;106874;1264;73077;-40
2023/02/12 08:11:54;;;;;;;2.90;1.70;;;;;;;0.97;56.12;100335.73;106809;1268;69996;-40
2023/02/12 08:14:26;;;;;;;3.00;1.40;;;;;;;1.06;56.28;100341.63;106795;1267;73951;-40
2023/02/12 08:16:55;;;;;;;2.80;1.20;;;;;;;1.13;55.76;100343.89;106715;1263;60747;-40
2023/02/12 08:19:24;;;;;;;2.30;1.30;;;;;;;1.20;55.99;100344.35;106718;1264;61542;-39
2023/02/12 08:21:55;;;;;;;5.60;3.10;;;;;;;1.25;55.62;100352.40;106740;1263;71170;-40
2023/02/12 08:24:23;;;;;;;3.70;1.70;;;;;;;1.28;55.70;100359.54;106737;1263;69884;-40
2023/02/12 08:26:52;;;;;;;3.20;1.80;;;;;;;1.26;54.58;100364.19;106749;1264;73844;-40
2023/02/12 08:29:23;;;;;;;2.30;1.20;;;;;;;1.22;55.01;100363.27;106780;1267;60443;-40
2023/02/12 08:31:59;;;;;;;4.30;1.90;;;;;;;1.22;54.83;100374.52;106852;1264;59590;-40
2023/02/12 08:34:33;;;;;;;4.50;2.70;;;;;;;1.31;54.84;100381.86;106834;1264;74177;-40
2023/02/12 08:37:04;;;;;;;5.90;1.90;;;;;;;1.44;54.63;100374.80;106830;1267;67992;-40
2023/02/12 08:39:32;;;;;;;3.00;1.90;;;;;;;1.60;54.84;100377.73;106896;1267;73924;-40
2023/02/12 08:42:03;;;;;;;2.90;1.30;;;;;;;1.78;54.34;100386.36;106849;1264;60483;-40
2023/02/12 08:44:32;;;;;;;2.90;1.90;;;;;;;1.87;53.04;100395.33;106875;1264;61502;-40
2023/02/12 08:47:02;;;;;;;7.30;2.20;;;;;;;1.88;52.75;100386.77;106805;1266;72930;-40
2023/02/12 08:49:31;;;;;;;5.50;1.70;;;;;;;1.93;52.17;100388.34;106799;1263;69917;-40
2023/02/12 08:52:01;;;;;;;2.50;1.70;;;;;;;1.98;52.27;100393.93;106770;1268;73566;-40
2023/02/12 08:54:32;;;;;;;3.10;1.70;;;;;;;2.08;52.66;100397.65;106817;1265;60517;-40
2023/02/12 08:57:01;;;;;;;3.30;1.50;;;;;;;2.18;51.59;100398.02;106089;1267;1002954;-40
2023/02/12 08:59:30;;;;;;;3.90;1.40;;;;;;;2.31;51.91;100404.52;106806;1264;73922;-40
2023/02/12 09:01:59;;;;;;;2.40;1.50;;;;;;;2.44;52.10;100408.63;106817;1264;69999;-40
2023/02/12 09:04:30;;;;;;;3.70;1.70;;;;;;;2.61;52.31;100413.91;106815;1264;71652;-40
2023/02/12 09:06:58;;;;;;;3.40;1.50;;;;;;;2.67;51.17;100415.56;106818;1266;60829;-40
2023/02/12 09:09:27;;;;;;;2.90;1.40;;;;;;;2.63;50.13;100414.42;106872;1264;61533;-40
2023/02/12 09:12:01;;;;;;;4.40;1.50;;;;;;;2.55;50.24;100416.05;106797;1265;74330;-40
2023/02/12 09:14:30;;;;;;;4.60;1.40;;;;;;;2.56;50.53;100419.99;106847;1267;69604;-40
2023/02/12 09:16:59;;;;;;;2.70;1.50;;;;;;;2.64;49.89;100424.42;106849;1267;73910;-40
2023/02/12 09:19:28;;;;;;;2.60;1.50;;;;;;;2.72;49.80;100423.39;106885;1266;60791;-40
2023/02/12 09:21:56;;;;;;;4.10;1.40;;;;;;;2.78;49.05;100418.90;106717;1264;61435;-40
2023/02/12 09:24:26;;;;;;;1.80;0.90;;;;;;;2.86;48.92;100415.98;106728;1265;73885;-40
2023/02/12 09:26:55;;;;;;;3.80;1.20;;;;;;;2.92;49.55;100422.07;106731;1264;69979;-41
2023/02/12 09:29:24;;;;;;;1.90;1.00;;;;;;;3.04;50.24;100424.75;106728;1267;74079;-41
2023/02/12 09:31:53;;;;;;;3.30;1.60;;;;;;;3.16;49.70;100422.75;106839;1266;60769;-41
2023/02/12 09:34:23;;;;;;;2.80;1.20;;;;;;;3.23;49.36;100422.58;106834;1264;61312;-41
2023/02/12 09:36:53;;;;;;;4.00;1.50;;;;;;;3.24;49.58;100429.30;106731;1265;73986;-41
2023/02/12 09:39:22;;;;;;;3.00;1.50;;;;;;;3.29;49.57;100431.40;106811;1268;69629;-40
2023/02/12 09:42:12;;;;;;;4.60;1.50;;;;;;;3.41;49.67;100433.57;106783;1264;73657;-40
2023/02/12 09:44:53;;;;;;;2.20;1.40;;;;;;;3.56;48.80;100426.48;106773;1266;60448;-40
2023/02/12 09:47:47;;;;;;;2.60;1.40;;;;;;;3.71;47.06;100439.91;106810;1264;61541;-40
2023/02/12 09:50:26;;;;;;;2.20;1.10;;;;;;;3.74;46.70;100430.11;106840;1267;73956;-40
2023/02/12 09:52:56;;;;;;;3.80;1.50;;;;;;;3.75;45.30;100434.02;106078;1268;1003768;-40
2023/02/12 09:55:29;;;;;;;3.50;1.30;;;;;;;3.72;46.00;100441.99;106806;1266;73718;-40
2023/02/12 09:58:00;;;;;;;5.30;1.30;;;;;;;3.78;46.89;100434.15;106796;1267;59707;-40
2023/02/12 10:00:31;;;;;;;3.80;1.30;;;;;;;3.93;47.16;100425.19;106858;1266;61513;-40
2023/02/12 10:03:01;;;;;;;5.20;1.70;;;;;;;4.11;46.29;100430.30;106828;1267;73053;-40
2023/02/12 10:05:40;;;;;;;5.20;2.40;;;;;;;4.23;45.25;100435.48;106805;1266;69919;-40
2023/02/12 10:08:33;;;;;;;4.30;1.60;;;;;;;4.29;44.65;100425.52;106810;1264;73888;-40
2023/02/12 10:11:21;;;;;;;3.80;1.40;;;;;;;4.22;43.90;100429.92;106765;1266;60532;-40
2023/02/12 10:13:52;;;;;;;15.20;6.10;;;;;;;4.14;44.69;100428.44;106816;1264;61399;-40
2023/02/12 10:16:30;;;;;;;4.60;2.40;;;;;;;4.13;43.58;100428.73;106782;1266;74266;-40
2023/02/12 10:18:58;;;;;;;5.00;1.90;;;;;;;4.16;43.44;100427.55;106802;1265;70233;-40
2023/02/12 10:21:36;;;;;;;4.60;2.20;;;;;;;4.22;44.32;100427.74;106772;1265;73883;-40
2023/02/12 10:24:17;;;;;;;5.20;2.90;;;;;;;4.37;44.58;100433.73;106702;1266;60593;-40
2023/02/12 10:26:49;;;;;;;4.50;1.90;;;;;;;4.52;44.29;100430.02;106746;1265;61557;-40
2023/02/12 10:29:20;;;;;;;2.90;1.60;;;;;;;4.56;44.27;100425.16;106832;1266;74185;-40
2023/02/12 10:32:13;;;;;;;4.50;1.70;;;;;;;4.58;44.59;100428.84;106735;1266;69641;-40
2023/02/12 10:34:41;;;;;;;6.00;4.00;;;;;;;4.60;44.47;100439.17;106631;1266;73995;-40
2023/02/12 10:37:31;;;;;;;5.10;2.90;;;;;;;4.62;44.15;100437.96;106716;1267;60789;-40
2023/02/12 10:40:14;;;;;;;3.60;1.80;;;;;;;4.66;44.75;100443.95;106824;1266;61418;-40
2023/02/12 10:42:46;;;;;;;2.90;1.60;;;;;;;4.75;45.17;100437.57;106812;1265;74083;-40
2023/02/12 10:45:17;;;;;;;1.60;1.20;;;;;;;4.87;45.29;100443.94;106800;1265;69055;-40
2023/02/12 10:47:46;;;;;;;3.60;1.30;;;;;;;5.02;44.65;100447.33;106808;1267;74161;-40
2023/02/12 10:50:27;;;;;;;3.60;1.50;;;;;;;5.11;44.05;100439.04;106807;1267;59796;-40
2023/02/12 10:52:57;;;;;;;2.80;1.20;;;;;;;5.21;43.60;100446.06;106809;1265;61268;-40
2023/02/12 10:55:31;;;;;;;1.90;0.80;;;;;;;5.32;43.38;100447.69;104603;1267;1003610;-40
2023/02/12 10:58:01;;;;;;;2.80;1.10;;;;;;;5.37;43.04;100444.73;106827;1266;69958;-39
2023/02/12 11:00:33;;;;;;;2.60;1.50;;;;;;;5.38;42.32;100448.71;106839;1266;72501;-40
2023/02/12 11:03:19;;;;;;;2.30;1.10;;;;;;;5.36;41.79;100450.31;106744;1269;60451;-40
2023/02/12 11:05:48;;;;;;;2.50;1.20;;;;;;;5.31;41.72;100463.08;106842;1266;61783;-39
2023/02/12 11:08:26;;;;;;;1.90;1.10;;;;;;;5.31;41.41;100465.61;106736;1267;74361;-39
2023/02/12 11:10:55;;;;;;;2.80;1.60;;;;;;;5.36;41.57;100473.33;106702;1266;69980;-39
2023/02/12 11:13:25;;;;;;;3.00;1.20;;;;;;;5.43;41.48;100473.67;106642;1266;73773;-39
2023/02/12 11:15:53;;;;;;;1.90;0.90;;;;;;;5.52;41.69;100470.05;106851;1266;59720;-39
2023/02/12 11:18:25;;;;;;;2.40;1.30;;;;;;;5.57;41.96;100473.08;106802;1267;59663;-39
2023/02/12 11:20:57;;;;;;;3.10;1.30;;;;;;;5.62;42.00;100475.73;106825;1268;74243;-40
2023/02/12 11:23:31;;;;;;;3.00;1.40;;;;;;;5.66;41.19;100476.92;106825;1266;68912;-40
2023/02/12 11:26:03;;;;;;;2.20;1.30;;;;;;;5.79;41.48;100481.15;106824;1266;71938;-40
2023/02/12 11:28:34;;;;;;;3.60;1.30;;;;;;;5.94;40.57;100486.63;106806;1267;60866;-40
2023/02/12 11:31:20;;;;;;;3.40;1.20;;;;;;;6.04;39.45;100483.67;106836;1265;61535;-40
2023/02/12 11:34:19;;;;;;;3.00;1.50;;;;;;;6.11;38.34;100484.88;106836;1266;73252;-40
2023/02/12 11:36:51;;;;;;;2.90;1.10;;;;;;;6.04;38.50;100481.48;106799;1266;69914;-40
2023/02/12 11:39:23;;;;;;;1.80;0.90;;;;;;;6.12;39.40;100479.84;106757;1269;73984;-40
2023/02/12 11:41:54;;;;;;;2.70;1.10;;;;;;;6.34;38.84;100480.04;106833;1266;60272;-40
2023/02/12 11:44:29;;;;;;;;;;;;;;;6.57;38.38;100486.58;106822;1264;60440;-40
2023/02/12 11:47:05;;;;;;;2.60;1.10;;;;;;;6.65;37.08;100488.19;106785;1269;73675;-40
2023/02/12 11:49:38;;;;;;;2.90;1.10;;;;;;;6.53;36.85;100485.81;106825;1265;70030;-41
2023/02/12 11:52:07;;;;;;;2.70;1.20;;;;;;;6.51;36.85;100492.20;106688;1269;73700;-41
2023/02/12 11:54:40;;;;;;;2.20;1.40;;;;;;;6.62;37.02;100492.18;106606;1266;60449;-40
2023/02/12 11:57:46;;;;;;;3.30;1.00;;;;;;;6.68;35.99;100493.83;106757;1266;61522;-41